Time;durP1;ratioP1;P1;durP2;ratioP2;P2;SDS_P1;SDS_P2;PMS_P1;PMS_P2;Temp;Humidity;BMP_temperature;BMP_pressure;BME280_temperature;BME280_humidity;BME280_pressure;Samples;Min_cycle;Max_cycle;Signal;HPM_P1;HPM_P2
2021/05/31 00:00:29;;;;;;;2.72;1.42;;;;;;;;;;4971508;28;20116;-45
2021/05/31 00:02:55;;;;;;;1.35;1.13;;;;;;;;;;4972355;28;20437;-45
2021/05/31 00:05:24;;;;;;;3.00;1.38;;;;;;;;;;4975331;28;20114;-46
2021/05/31 00:07:50;;;;;;;1.80;1.20;;;;;;;;;;4983984;28;20514;-45
2021/05/31 00:10:16;;;;;;;5.13;1.38;;;;;;;;;;4994202;28;20456;-45
2021/05/31 00:12:42;;;;;;;4.78;1.52;;;;;;;;;;4995135;28;20121;-45
2021/05/31 00:15:09;;;;;;;2.00;1.50;;;;;;;;;;4995406;28;20113;-45
2021/05/31 00:17:35;;;;;;;2.97;1.48;;;;;;;;;;4994756;28;20546;-45
2021/05/31 00:20:01;;;;;;;2.30;1.60;;;;;;;;;;4995116;28;20042;-45
2021/05/31 00:22:27;;;;;;;6.35;1.58;;;;;;;;;;4994590;28;20022;-45
2021/05/31 00:24:53;;;;;;;2.65;1.58;;;;;;;;;;4995265;28;20064;-45
2021/05/31 00:27:19;;;;;;;1.40;1.20;;;;;;;;;;4994426;28;20045;-45
2021/05/31 00:29:45;;;;;;;2.35;1.33;;;;;;;;;;4994896;28;20023;-45
2021/05/31 00:32:12;;;;;;;1.75;1.50;;;;;;;;;;4993977;28;20074;-45
2021/05/31 00:34:38;;;;;;;3.72;1.27;;;;;;;;;;4994877;28;20382;-46
2021/05/31 00:37:05;;;;;;;6.60;1.83;;;;;;;;;;4994930;28;20113;-45
2021/05/31 00:39:31;;;;;;;2.25;1.63;;;;;;;;;;4991875;28;20120;-45
2021/05/31 00:41:57;;;;;;;5.65;1.80;;;;;;;;;;4974275;28;20037;-45
2021/05/31 00:44:23;;;;;;;7.68;1.33;;;;;;;;;;4974392;28;20019;-45
2021/05/31 00:46:50;;;;;;;2.35;1.40;;;;;;;;;;4975401;28;20038;-45
2021/05/31 00:49:21;;;;;;;1.70;1.30;;;;;;;;;;4974737;28;20070;-45
2021/05/31 00:51:47;;;;;;;2.40;1.40;;;;;;;;;;4974527;28;20125;-45
2021/05/31 00:54:13;;;;;;;1.33;1.20;;;;;;;;;;4974956;28;20031;-45
2021/05/31 00:56:41;;;;;;;2.95;1.48;;;;;;;;;;4975129;28;20033;-45
2021/05/31 00:59:08;;;;;;;3.80;1.60;;;;;;;;;;4975049;28;20037;-45
2021/05/31 01:01:34;;;;;;;3.00;1.30;;;;;;;;;;4974134;28;20023;-45
2021/05/31 01:04:01;;;;;;;3.90;1.83;;;;;;;;;;4974439;28;20077;-45
2021/05/31 01:06:31;;;;;;;4.05;1.90;;;;;;;;;;4974889;28;20023;-45
2021/05/31 01:09:11;;;;;;;2.53;1.50;;;;;;;;;;4992358;28;20109;-45
2021/05/31 01:11:37;;;;;;;1.95;1.45;;;;;;;;;;4993336;28;20089;-45
2021/05/31 01:14:11;;;;;;;5.53;1.75;;;;;;;;;;4994373;28;20042;-45
2021/05/31 01:16:43;;;;;;;3.88;1.52;;;;;;;;;;4986540;28;20085;-45
2021/05/31 01:19:31;;;;;;;1.92;1.27;;;;;;;;;;4974303;28;20109;-46
2021/05/31 01:22:05;;;;;;;5.70;2.00;;;;;;;;;;4974438;28;20034;-45
2021/05/31 01:24:31;;;;;;;3.05;1.30;;;;;;;;;;4974769;28;20022;-46
2021/05/31 01:27:12;;;;;;;4.22;1.77;;;;;;;;;;4974070;28;20609;-45
2021/05/31 01:29:39;;;;;;;3.40;1.75;;;;;;;;;;4974127;28;20037;-45
2021/05/31 01:32:05;;;;;;;2.42;1.13;;;;;;;;;;4973471;28;20091;-45
2021/05/31 01:34:35;;;;;;;6.43;1.90;;;;;;;;;;4974764;28;20038;-45
2021/05/31 01:37:03;;;;;;;2.45;1.40;;;;;;;;;;4974585;28;20352;-45
2021/05/31 01:39:30;;;;;;;6.78;1.60;;;;;;;;;;4975384;28;20441;-45
2021/05/31 01:41:57;;;;;;;1.90;1.55;;;;;;;;;;4992889;28;20076;-45
2021/05/31 01:44:23;;;;;;;2.83;1.40;;;;;;;;;;4990919;28;20455;-45
2021/05/31 01:46:50;;;;;;;3.40;1.38;;;;;;;;;;4993711;28;20026;-45
2021/05/31 01:49:17;;;;;;;7.65;1.55;;;;;;;;;;4993005;28;20034;-45
2021/05/31 01:51:44;;;;;;;3.58;1.75;;;;;;;;;;4992367;28;20606;-45
2021/05/31 01:54:11;;;;;;;4.47;1.65;;;;;;;;;;4993534;28;20022;-45
2021/05/31 01:56:38;;;;;;;1.95;1.50;;;;;;;;;;4993280;28;20359;-45
2021/05/31 01:59:05;;;;;;;7.72;2.08;;;;;;;;;;4993063;28;20022;-45
2021/05/31 02:01:32;;;;;;;3.88;1.65;;;;;;;;;;4992947;28;20083;-45
2021/05/31 02:03:58;;;;;;;2.00;1.55;;;;;;;;;;4992474;28;20033;-46
2021/05/31 02:06:24;;;;;;;3.10;1.70;;;;;;;;;;4993206;28;20462;-45
2021/05/31 02:08:50;;;;;;;2.92;1.85;;;;;;;;;;4993233;28;20023;-45
2021/05/31 02:11:20;;;;;;;2.75;2.03;;;;;;;;;;4987389;28;20036;-45
2021/05/31 02:13:48;;;;;;;6.80;1.80;;;;;;;;;;4996088;28;20109;-45
2021/05/31 02:16:21;;;;;;;1.67;1.50;;;;;;;;;;4992805;28;20486;-45
2021/05/31 02:18:50;;;;;;;4.18;1.65;;;;;;;;;;4992763;28;20034;-45
2021/05/31 02:21:16;;;;;;;3.45;1.55;;;;;;;;;;4991774;28;20678;-46
2021/05/31 02:23:43;;;;;;;3.15;2.05;;;;;;;;;;4992976;28;20375;-45
2021/05/31 02:26:17;;;;;;;3.03;1.30;;;;;;;;;;4992813;28;20075;-48
2021/05/31 02:28:44;;;;;;;2.67;1.75;;;;;;;;;;4992909;28;20033;-45
2021/05/31 02:31:10;;;;;;;2.38;1.65;;;;;;;;;;4991615;28;20423;-45
2021/05/31 02:33:37;;;;;;;2.17;1.75;;;;;;;;;;4992689;28;20101;-45
2021/05/31 02:36:04;;;;;;;3.88;1.92;;;;;;;;;;4992635;28;20277;-47
2021/05/31 02:38:30;;;;;;;2.20;1.55;;;;;;;;;;4992511;28;20117;-45
2021/05/31 02:40:56;;;;;;;3.35;2.03;;;;;;;;;;4978918;28;20342;-46
2021/05/31 02:43:22;;;;;;;3.53;1.88;;;;;;;;;;4971057;28;20271;-45
2021/05/31 02:45:48;;;;;;;4.53;1.85;;;;;;;;;;4972968;28;20035;-45
2021/05/31 02:48:14;;;;;;;4.18;1.88;;;;;;;;;;4972996;28;20154;-45
2021/05/31 02:50:40;;;;;;;3.92;1.88;;;;;;;;;;4972125;28;20035;-45
2021/05/31 02:53:07;;;;;;;2.28;1.48;;;;;;;;;;4972624;28;20030;-45
2021/05/31 02:55:33;;;;;;;3.22;1.75;;;;;;;;;;4972858;28;20023;-45
2021/05/31 02:58:00;;;;;;;3.03;1.70;;;;;;;;;;4973329;28;20024;-45
2021/05/31 03:00:27;;;;;;;2.80;1.70;;;;;;;;;;4971632;28;20019;-45
2021/05/31 03:02:53;;;;;;;5.38;1.30;;;;;;;;;;4972805;28;20050;-45
2021/05/31 03:05:25;;;;;;;3.15;1.88;;;;;;;;;;4972721;28;20029;-44
2021/05/31 03:07:51;;;;;;;4.28;2.03;;;;;;;;;;4981396;28;20027;-45
2021/05/31 03:10:17;;;;;;;3.00;1.95;;;;;;;;;;4990595;28;20550;-45
2021/05/31 03:12:45;;;;;;;4.25;2.13;;;;;;;;;;4992083;28;20038;-45
2021/05/31 03:15:12;;;;;;;3.80;1.80;;;;;;;;;;4991848;28;20030;-45
2021/05/31 03:17:39;;;;;;;3.15;1.83;;;;;;;;;;4991789;28;20054;-45
2021/05/31 03:20:05;;;;;;;3.20;1.85;;;;;;;;;;4991149;28;20033;-45
2021/05/31 03:22:31;;;;;;;5.78;1.70;;;;;;;;;;4991527;28;20027;-45
2021/05/31 03:24:57;;;;;;;1.92;1.58;;;;;;;;;;4991722;28;20411;-45
2021/05/31 03:27:23;;;;;;;3.05;1.85;;;;;;;;;;4991600;28;20037;-45
2021/05/31 03:29:49;;;;;;;2.67;1.63;;;;;;;;;;4991573;28;20026;-45
2021/05/31 03:32:15;;;;;;;3.17;1.70;;;;;;;;;;4990868;28;20224;-46
2021/05/31 03:34:41;;;;;;;2.53;1.80;;;;;;;;;;4992066;28;20062;-45
2021/05/31 03:37:07;;;;;;;7.45;2.58;;;;;;;;;;4991598;28;20030;-45
2021/05/31 03:39:33;;;;;;;6.38;1.90;;;;;;;;;;4988180;28;20026;-45
2021/05/31 03:41:59;;;;;;;3.35;1.90;;;;;;;;;;4971454;28;20058;-45
2021/05/31 03:44:25;;;;;;;2.53;1.95;;;;;;;;;;4970055;28;20033;-45
2021/05/31 03:46:51;;;;;;;5.85;2.28;;;;;;;;;;4971740;28;20526;-45
2021/05/31 03:49:17;;;;;;;3.05;1.75;;;;;;;;;;4971961;28;20080;-45
2021/05/31 03:51:45;;;;;;;3.53;2.20;;;;;;;;;;4971882;28;20113;-44
2021/05/31 03:54:11;;;;;;;3.15;1.88;;;;;;;;;;4972086;28;20023;-45
2021/05/31 03:56:37;;;;;;;2.97;1.80;;;;;;;;;;4971760;28;20456;-45
2021/05/31 03:59:03;;;;;;;2.65;1.92;;;;;;;;;;4971821;28;20030;-45
2021/05/31 04:01:29;;;;;;;5.32;2.17;;;;;;;;;;4971395;28;20101;-45
2021/05/31 04:03:55;;;;;;;5.00;1.65;;;;;;;;;;4971506;28;20033;-45
2021/05/31 04:06:42;;;;;;;5.32;2.40;;;;;;;;;;4972173;28;20022;-46
2021/05/31 04:11:53;;;;;;;3.40;2.17;;;;;;;;;;4990374;28;20486;-45
2021/05/31 04:14:20;;;;;;;5.43;2.45;;;;;;;;;;4990522;28;20029;-45
2021/05/31 04:16:50;;;;;;;4.13;2.33;;;;;;;;;;4984181;28;20027;-45
2021/05/31 04:19:17;;;;;;;6.18;1.70;;;;;;;;;;4978985;28;20018;-45
2021/05/31 04:21:46;;;;;;;3.55;2.30;;;;;;;;;;5010486;28;20116;-45
2021/05/31 04:24:12;;;;;;;5.65;2.25;;;;;;;;;;5010504;28;20065;-46
2021/05/31 04:26:38;;;;;;;2.90;2.30;;;;;;;;;;5010877;28;20363;-45
2021/05/31 04:29:05;;;;;;;3.65;2.05;;;;;;;;;;5010314;28;20068;-45
2021/05/31 04:31:32;;;;;;;3.55;2.50;;;;;;;;;;5009586;28;20509;-44
2021/05/31 04:33:58;;;;;;;6.07;2.47;;;;;;;;;;5010224;28;20025;-45
2021/05/31 04:36:24;;;;;;;4.80;2.03;;;;;;;;;;4993243;28;20376;-45
2021/05/31 04:38:50;;;;;;;7.25;2.65;;;;;;;;;;4988350;28;20026;-45
2021/05/31 04:41:16;;;;;;;4.40;2.63;;;;;;;;;;4990346;28;20022;-45
2021/05/31 04:43:42;;;;;;;5.07;2.30;;;;;;;;;;4990656;28;20048;-45
2021/05/31 04:46:08;;;;;;;4.88;2.47;;;;;;;;;;4990763;28;20436;-46
2021/05/31 04:48:34;;;;;;;11.93;2.83;;;;;;;;;;4989018;28;20035;-45
2021/05/31 04:51:01;;;;;;;3.88;2.60;;;;;;;;;;4992773;28;20348;-45
2021/05/31 04:53:28;;;;;;;4.03;2.35;;;;;;;;;;4994311;28;20448;-45
2021/05/31 04:55:54;;;;;;;5.38;2.30;;;;;;;;;;4994629;28;20068;-46
2021/05/31 04:58:21;;;;;;;3.20;2.28;;;;;;;;;;4994114;28;20034;-46
2021/05/31 05:00:47;;;;;;;4.95;2.10;;;;;;;;;;4994106;28;20019;-45
2021/05/31 05:03:13;;;;;;;4.18;2.22;;;;;;;;;;4994574;28;20031;-46
2021/05/31 05:05:39;;;;;;;4.75;2.65;;;;;;;;;;4994527;28;20345;-46
2021/05/31 05:08:06;;;;;;;6.45;2.72;;;;;;;;;;4994173;28;20099;-46
2021/05/31 05:10:32;;;;;;;3.90;2.42;;;;;;;;;;4993436;28;20121;-45
2021/05/31 05:12:58;;;;;;;6.78;2.78;;;;;;;;;;4993780;28;20081;-46
2021/05/31 05:15:25;;;;;;;4.85;2.60;;;;;;;;;;4994255;28;20042;-46
2021/05/31 05:17:51;;;;;;;3.28;2.28;;;;;;;;;;4981156;28;20630;-45
2021/05/31 05:20:18;;;;;;;3.55;2.35;;;;;;;;;;4983302;28;20360;-45
2021/05/31 05:22:44;;;;;;;3.72;2.55;;;;;;;;;;4984995;28;20026;-45
2021/05/31 05:25:11;;;;;;;6.72;2.53;;;;;;;;;;4991122;28;20027;-45
2021/05/31 05:27:38;;;;;;;5.57;2.53;;;;;;;;;;4993432;28;20045;-45
2021/05/31 05:30:05;;;;;;;3.80;2.60;;;;;;;;;;4982564;28;20052;-45
2021/05/31 05:32:32;;;;;;;4.07;2.47;;;;;;;;;;4974476;28;20330;-47
2021/05/31 05:35:07;;;;;;;5.15;2.40;;;;;;;;;;4974169;28;20034;-45
2021/05/31 05:37:34;;;;;;;3.17;2.40;;;;;;;;;;4974275;28;20035;-46
2021/05/31 05:40:25;;;;;;;4.80;2.97;;;;;;;;;;4973577;28;20338;-45
2021/05/31 05:48:12;;;;;;;5.03;2.42;;;;;;;;;;4993223;28;20053;-45
2021/05/31 05:50:38;;;;;;;6.60;3.28;;;;;;;;;;4986410;28;20330;-45
2021/05/31 05:53:04;;;;;;;6.25;3.17;;;;;;;;;;4983405;28;20507;-45
2021/05/31 05:55:30;;;;;;;6.50;3.22;;;;;;;;;;4979094;28;20138;-45
2021/05/31 05:57:57;;;;;;;3.92;2.55;;;;;;;;;;4985640;28;20027;-45
2021/05/31 06:00:24;;;;;;;4.15;2.80;;;;;;;;;;4988756;28;20109;-45
2021/05/31 06:02:50;;;;;;;5.35;2.75;;;;;;;;;;4985893;28;20053;-45
2021/05/31 06:05:17;;;;;;;5.43;3.03;;;;;;;;;;4993067;28;20042;-45
2021/05/31 06:07:43;;;;;;;9.73;3.22;;;;;;;;;;4989112;28;20456;-45
2021/05/31 06:10:10;;;;;;;6.53;2.90;;;;;;;;;;4980229;28;20063;-45
2021/05/31 06:12:36;;;;;;;4.55;3.08;;;;;;;;;;4973409;28;20062;-45
2021/05/31 06:15:03;;;;;;;6.88;3.63;;;;;;;;;;4972302;28;20412;-45
2021/05/31 06:17:29;;;;;;;8.60;3.92;;;;;;;;;;4987180;28;20030;-45
2021/05/31 06:20:01;;;;;;;4.57;3.40;;;;;;;;;;4992928;28;20363;-45
2021/05/31 06:22:38;;;;;;;6.55;3.95;;;;;;;;;;4992121;28;20026;-45
2021/05/31 06:25:04;;;;;;;5.00;3.05;;;;;;;;;;4992700;28;20058;-45
2021/05/31 06:27:30;;;;;;;8.25;3.65;;;;;;;;;;4991444;28;20093;-44
2021/05/31 06:29:56;;;;;;;5.75;3.55;;;;;;;;;;4993267;28;20380;-45
2021/05/31 06:32:22;;;;;;;10.70;3.30;;;;;;;;;;4992314;28;20069;-44
2021/05/31 06:34:48;;;;;;;9.07;3.88;;;;;;;;;;4992469;28;20022;-45
2021/05/31 06:37:15;;;;;;;8.35;3.20;;;;;;;;;;4992970;28;20118;-45
2021/05/31 06:39:41;;;;;;;6.93;3.72;;;;;;;;;;4989067;28;20022;-45
2021/05/31 06:42:07;;;;;;;5.30;3.58;;;;;;;;;;4972154;28;20045;-45
2021/05/31 06:44:33;;;;;;;8.02;3.28;;;;;;;;;;4973335;28;20019;-45
2021/05/31 06:46:59;;;;;;;4.63;2.92;;;;;;;;;;4972895;28;20364;-45
2021/05/31 06:49:25;;;;;;;7.22;4.05;;;;;;;;;;4972986;28;20038;-45
2021/05/31 06:51:51;;;;;;;8.13;3.90;;;;;;;;;;4972396;28;20067;-45
2021/05/31 06:54:17;;;;;;;9.70;3.72;;;;;;;;;;4972999;28;20027;-45
2021/05/31 06:56:43;;;;;;;4.93;3.38;;;;;;;;;;4972540;28;20030;-46
2021/05/31 06:59:09;;;;;;;6.35;3.95;;;;;;;;;;4973032;28;20058;-45
2021/05/31 07:01:35;;;;;;;6.18;3.70;;;;;;;;;;4972383;28;20037;-45
2021/05/31 07:04:01;;;;;;;5.40;3.47;;;;;;;;;;4972621;28;20019;-45
2021/05/31 07:06:28;;;;;;;7.15;3.33;;;;;;;;;;4972753;28;20023;-45
2021/05/31 07:08:54;;;;;;;6.03;4.25;;;;;;;;;;4989470;28;20105;-45
2021/05/31 07:11:23;;;;;;;5.95;3.92;;;;;;;;;;4991288;28;20038;-45
2021/05/31 07:13:49;;;;;;;7.95;4.07;;;;;;;;;;4991170;28;20345;-45
2021/05/31 07:16:15;;;;;;;7.65;4.05;;;;;;;;;;4987627;28;20511;-45
2021/05/31 07:18:41;;;;;;;10.18;4.05;;;;;;;;;;4972841;28;20046;-45
2021/05/31 07:21:07;;;;;;;7.45;3.38;;;;;;;;;;4971389;28;20031;-45
2021/05/31 07:23:36;;;;;;;9.15;3.20;;;;;;;;;;4972589;28;20420;-45
2021/05/31 07:26:02;;;;;;;4.43;3.45;;;;;;;;;;4971051;28;20166;-45
2021/05/31 07:28:28;;;;;;;7.57;4.00;;;;;;;;;;4972885;28;20318;-45
2021/05/31 07:30:54;;;;;;;6.78;4.25;;;;;;;;;;4971691;28;20034;-44
2021/05/31 07:33:20;;;;;;;6.38;4.72;;;;;;;;;;4971560;28;20105;-45
2021/05/31 07:35:46;;;;;;;9.35;4.78;;;;;;;;;;4971716;28;20311;-45
2021/05/31 07:38:12;;;;;;;6.85;3.78;;;;;;;;;;4972224;28;20496;-44
2021/05/31 07:40:38;;;;;;;7.85;4.30;;;;;;;;;;4981597;28;20096;-45
2021/05/31 07:43:04;;;;;;;6.50;3.40;;;;;;;;;;4991444;28;20527;-45
2021/05/31 07:45:31;;;;;;;8.40;4.05;;;;;;;;;;4991750;28;20022;-45
2021/05/31 07:47:57;;;;;;;6.93;3.92;;;;;;;;;;4991766;28;20027;-47
2021/05/31 07:50:23;;;;;;;7.00;4.20;;;;;;;;;;4988891;28;20355;-45
2021/05/31 07:52:49;;;;;;;6.30;3.35;;;;;;;;;;4991406;28;20172;-45
2021/05/31 07:55:16;;;;;;;5.00;3.83;;;;;;;;;;4991505;28;20022;-45
2021/05/31 07:57:44;;;;;;;5.72;3.53;;;;;;;;;;4991623;28;20034;-46
2021/05/31 08:00:12;;;;;;;4.72;3.63;;;;;;;;;;4990977;28;20026;-45
2021/05/31 08:02:41;;;;;;;4.88;3.25;;;;;;;;;;4991022;28;20444;-47
2021/05/31 08:05:07;;;;;;;5.57;3.08;;;;;;;;;;4988373;28;20062;-45
2021/05/31 08:07:33;;;;;;;4.50;3.30;;;;;;;;;;4978916;28;20026;-45
2021/05/31 08:09:59;;;;;;;8.90;3.30;;;;;;;;;;4982612;28;20072;-45
2021/05/31 08:12:25;;;;;;;4.45;2.97;;;;;;;;;;4980177;28;20452;-45
2021/05/31 08:14:51;;;;;;;5.72;3.05;;;;;;;;;;4980697;28;20089;-45
2021/05/31 08:17:17;;;;;;;4.88;3.40;;;;;;;;;;4981917;28;20456;-45
2021/05/31 08:19:43;;;;;;;4.95;2.75;;;;;;;;;;4971841;28;20070;-45
2021/05/31 08:22:09;;;;;;;5.72;3.53;;;;;;;;;;4971105;28;20027;-45
2021/05/31 08:24:36;;;;;;;5.70;4.10;;;;;;;;;;4972586;28;20471;-45
2021/05/31 08:27:03;;;;;;;6.10;4.13;;;;;;;;;;4975349;28;20093;-45
2021/05/31 08:29:29;;;;;;;6.85;3.40;;;;;;;;;;4975724;28;20073;-45
2021/05/31 08:31:56;;;;;;;11.57;3.70;;;;;;;;;;4972995;28;20027;-44
2021/05/31 08:34:24;;;;;;;12.70;4.03;;;;;;;;;;4975831;28;20035;-45
2021/05/31 08:36:50;;;;;;;6.05;3.88;;;;;;;;;;4975458;28;20329;-45
2021/05/31 08:39:16;;;;;;;5.47;3.45;;;;;;;;;;4975608;28;20031;-45
2021/05/31 08:41:42;;;;;;;6.75;3.05;;;;;;;;;;4975059;28;20058;-45
2021/05/31 08:44:08;;;;;;;7.13;3.15;;;;;;;;;;4979067;28;20235;-45
2021/05/31 08:46:35;;;;;;;5.93;3.08;;;;;;;;;;4974956;28;20089;-45
2021/05/31 08:49:02;;;;;;;10.05;3.20;;;;;;;;;;4976492;28;20034;-44
2021/05/31 08:51:28;;;;;;;5.32;3.42;;;;;;;;;;4993651;28;20411;-44
2021/05/31 08:53:55;;;;;;;3.45;2.40;;;;;;;;;;4993927;28;20076;-44
2021/05/31 08:56:21;;;;;;;13.35;3.28;;;;;;;;;;4994787;28;20030;-45
2021/05/31 08:58:48;;;;;;;6.90;3.05;;;;;;;;;;4992515;28;20295;-45
2021/05/31 09:01:15;;;;;;;6.00;3.28;;;;;;;;;;4993567;28;20076;-46
2021/05/31 09:03:41;;;;;;;5.28;3.58;;;;;;;;;;4994673;28;20109;-45
2021/05/31 09:06:10;;;;;;;5.55;3.00;;;;;;;;;;4994232;28;20046;-45
2021/05/31 09:08:36;;;;;;;4.88;2.80;;;;;;;;;;4994269;28;20030;-44
2021/05/31 09:11:03;;;;;;;7.88;4.00;;;;;;;;;;4992942;28;20367;-44
2021/05/31 09:13:30;;;;;;;8.10;3.05;;;;;;;;;;4994575;28;20077;-45
2021/05/31 09:16:24;;;;;;;5.63;3.25;;;;;;;;;;4993988;28;20455;-45
2021/05/31 09:18:51;;;;;;;5.93;3.42;;;;;;;;;;4992111;28;20368;-45
2021/05/31 09:21:27;;;;;;;8.63;3.83;;;;;;;;;;4992733;28;20257;-44
2021/05/31 09:23:59;;;;;;;6.10;3.85;;;;;;;;;;4994062;28;20034;-45
2021/05/31 09:26:26;;;;;;;7.55;3.17;;;;;;;;;;4993852;28;20034;-45
2021/05/31 09:28:53;;;;;;;3.53;2.90;;;;;;;;;;4993763;28;20041;-45
2021/05/31 09:31:19;;;;;;;4.85;3.10;;;;;;;;;;4992961;28;20034;-45
2021/05/31 09:33:55;;;;;;;6.10;3.30;;;;;;;;;;4993120;28;20359;-45
2021/05/31 09:36:21;;;;;;;3.53;2.83;;;;;;;;;;4993115;28;20027;-44
2021/05/31 09:38:48;;;;;;;6.78;3.20;;;;;;;;;;4993791;28;20452;-44
2021/05/31 09:41:21;;;;;;;11.52;3.72;;;;;;;;;;4976896;28;20034;-44
2021/05/31 09:43:54;;;;;;;3.67;1.90;;;;;;;;;;4974341;28;20023;-44
2021/05/31 09:46:20;;;;;;;3.40;2.38;;;;;;;;;;4974216;28;20043;-44
2021/05/31 09:48:46;;;;;;;8.30;3.50;;;;;;;;;;4974107;28;20050;-45
2021/05/31 09:51:14;;;;;;;2.97;2.10;;;;;;;;;;4973420;28;20043;-44
2021/05/31 09:53:40;;;;;;;3.70;2.33;;;;;;;;;;4974243;28;20456;-45
2021/05/31 09:56:13;;;;;;;4.43;3.00;;;;;;;;;;4974126;28;20019;-45
2021/05/31 09:59:03;;;;;;;4.25;3.00;;;;;;;;;;4972081;28;20062;-44
2021/05/31 10:01:36;;;;;;;5.05;3.15;;;;;;;;;;4972721;28;20106;-44
2021/05/31 10:04:53;;;;;;;4.03;2.60;;;;;;;;;;4973831;28;20038;-45
2021/05/31 10:07:02;;;;;;;5.72;2.70;;;;;;;;;;4971341;28;20050;-44
2021/05/31 10:09:29;;;;;;;3.88;2.97;;;;;;;;;;4993202;28;20022;-44
2021/05/31 10:11:56;;;;;;;5.25;2.38;;;;;;;;;;4992705;28;20031;-44
2021/05/31 10:14:23;;;;;;;3.75;2.40;;;;;;;;;;4992820;28;20074;-45
2021/05/31 10:16:49;;;;;;;4.65;2.17;;;;;;;;;;4984468;28;20093;-45
2021/05/31 10:19:16;;;;;;;6.70;2.70;;;;;;;;;;4973791;28;20435;-46
2021/05/31 10:21:42;;;;;;;5.03;2.28;;;;;;;;;;4973100;28;20065;-45
2021/05/31 10:24:09;;;;;;;4.88;2.38;;;;;;;;;;4973858;28;20070;-44
2021/05/31 10:26:36;;;;;;;4.30;2.60;;;;;;;;;;4972941;28;20042;-45
2021/05/31 10:29:02;;;;;;;4.35;2.58;;;;;;;;;;4973720;28;20078;-45
2021/05/31 10:31:30;;;;;;;8.38;2.75;;;;;;;;;;4972367;28;20049;-46
2021/05/31 10:33:57;;;;;;;4.80;2.30;;;;;;;;;;4973408;28;20433;-45
2021/05/31 10:36:23;;;;;;;6.30;2.28;;;;;;;;;;4973231;28;20034;-45
2021/05/31 10:38:51;;;;;;;7.78;2.83;;;;;;;;;;4973077;28;20445;-45
2021/05/31 10:41:21;;;;;;;5.78;2.38;;;;;;;;;;4988556;28;20027;-45
2021/05/31 10:43:49;;;;;;;6.15;2.10;;;;;;;;;;4992724;28;20088;-45
2021/05/31 10:46:16;;;;;;;3.25;2.35;;;;;;;;;;4992462;28;20034;-45
2021/05/31 10:48:43;;;;;;;5.75;2.53;;;;;;;;;;4991949;28;20038;-45
2021/05/31 10:51:14;;;;;;;3.22;2.30;;;;;;;;;;4991654;28;20197;-45
2021/05/31 10:53:40;;;;;;;3.35;2.40;;;;;;;;;;4992558;28;20034;-45
2021/05/31 10:56:09;;;;;;;8.93;2.60;;;;;;;;;;4991920;28;20026;-45
